LGAVLGPZ

Guest
Details From LGAV - Athens Intl Airport Elefterios Venizel
To LGPZ - AKTIO
Flight Number -
Tags generated
Created
Modified
Stats Distance 161 nm / 299 km
Max Altitude 11,900 ft / 3,627 m
Waypoints 3
Social Downloads 0
Likes 0
Share VATSIM

Download

Looking for another format? Having issues loading an existing format? Contact us
Advertisement - Login to hide

Notes

Basic altitude profile: - Ascent Rate: 2500ft/min - Ascent Speed: 250kts - Cruise Altitude: 35000ft - Cruise Speed: 420kts - Descent Rate: 1500ft/min - Descent Speed: 250kts Options: - Use NATs: yes - Use PACOTS: yes - Use low airways: yes - Use high airways: yes

Route

LGAV ELVAS LGPZ

ID Type Via Altitude (ft/m) Position (lat/lon) Dist (leg/tot) Name
O LGAV APT - 0 / 0 37.93636 / 23.94447 - / 0 nm Athens Intl Airport Elefterios Venizel
ELVAS FIX - 11,900 / 3,627 38.52472 / 21.84194 105 / 105 nm
O LGPZ APT - 0 / 0 38.92547 / 20.76531 55 / 161 nm AKTIO

Altitude Profile

Advertisement - Login to hide

LGAV

Details ICAO LGAV (ATH)
Name Athens Eleftherios Venizelos
Region Greece
Timezone Europe/Athens (UTC+3.0)
Stats Elevation 308 ft / 94 m (AMSL)
Location 37.936700° 23.944500°
Runways 2
Magnetic Variation 4.550° E

METAR

LGAV 181320Z 04018G28KT 9999 FEW030 33/12 Q1011 NOSIG

Decode

TAF

TAF TAF LGAV 181100Z 1812/1912 02016KT 9999 FEW030 TEMPO 1812/1817 02016G26KT BECMG 1817/1819 34015KT BECMG 1821/1823 36018G28KT

Decode

Departure Runways

ID Width Length Bearing (true/mag) Surface Threshold Overrun Markings Lighting
03L 148 ft / 45 m 12,479 ft / 3,804 m 36.85° / 32.30° ASPHALT 984 ft / 300 m 397 ft / 121 m PREC-APP CENTERLINE EDGE THRESHOLD ALSF-II TDZ
03R 148 ft / 45 m 13,136 ft / 4,004 m 36.89° / 32.34° ASPHALT 984 ft / 300 m 387 ft / 118 m PREC-APP CENTERLINE EDGE THRESHOLD ALSF-II TDZ
21L 148 ft / 45 m 13,136 ft / 4,004 m 216.91° / 212.36° ASPHALT 984 ft / 300 m 400 ft / 122 m PREC-APP CENTERLINE EDGE THRESHOLD ALSF-II TDZ
21R 148 ft / 45 m 12,479 ft / 3,804 m 216.87° / 212.32° ASPHALT 984 ft / 300 m 394 ft / 120 m PREC-APP CENTERLINE EDGE THRESHOLD ALSF-II TDZ

LGPZ

Details ICAO LGPZ (PVK)
Name AKTIO
Region Greece
Timezone Europe/Athens (UTC+3.0)
Stats Elevation 11 ft / 3 m (AMSL)
Location 38.925500° 20.765300°
Runways 1
Magnetic Variation 4.226° E

METAR

LGPZ 181320Z 27010KT CAVOK 31/22 Q1013

Decode

TAF

TAF TAF LGPZ 181100Z 1812/1912 30008KT 9999 FEW025 SCT080 PROB30 TEMPO 1812/1818 5000 SHRA FEW018CB BKN080 BECMG 1819/1821 06008KT

Decode

Destination Runways

ID Width Length Bearing (true/mag) Surface Threshold Overrun Markings Lighting
07L 148 ft / 45 m 9,404 ft / 2,866 m 67.79° / 63.56° ASPHALT 0 ft / 0 m 80 ft / 24 m APP EDGE THRESHOLD
25R 148 ft / 45 m 9,404 ft / 2,866 m 247.81° / 243.58° ASPHALT 492 ft / 150 m 380 ft / 116 m APP EDGE THRESHOLD MALS

Popular Alternatives